Time;durP1;ratioP1;P1;durP2;ratioP2;P2;SDS_P1;SDS_P2;PMS_P1;PMS_P2;Temp;Humidity;BMP_temperature;BMP_pressure;BME280_temperature;BME280_humidity;BME280_pressure;Samples;Min_cycle;Max_cycle;Signal;HPM_P1;HPM_P2
2023/03/28 00:01:38;;;;;;;13.23;1.98;;;2.40;99.90;;;;;;5046406;28;20042;-69
2023/03/28 00:04:04;;;;;;;15.50;1.88;;;2.40;99.90;;;;;;5047746;28;20014;-70
2023/03/28 00:06:30;;;;;;;12.50;1.58;;;2.30;99.90;;;;;;5047137;28;20026;-70
2023/03/28 00:08:56;;;;;;;18.08;2.05;;;2.30;99.90;;;;;;5047470;28;20025;-70
2023/03/28 00:11:22;;;;;;;15.32;2.25;;;2.30;99.90;;;;;;5047392;28;20038;-70
2023/03/28 00:13:56;;;;;;;12.00;1.83;;;2.30;99.90;;;;;;5047576;28;20036;-70
2023/03/28 00:16:24;;;;;;;;;;;2.30;99.90;;;;;;5046350;28;20029;-70
2023/03/28 00:18:51;;;;;;;12.23;1.75;;;2.30;99.90;;;;;;5047194;28;19909;-72
2023/03/28 00:21:26;;;;;;;11.25;1.70;;;2.30;99.90;;;;;;5046961;28;20179;-69
2023/03/28 00:24:09;;;;;;;15.27;2.08;;;2.30;99.90;;;;;;5047240;28;20092;-72
2023/03/28 00:26:36;;;;;;;14.88;2.00;;;2.30;99.90;;;;;;5043422;28;20030;-69
2023/03/28 00:29:03;;;;;;;15.30;2.05;;;2.30;99.90;;;;;;5047269;28;20466;-69
2023/03/28 00:31:30;;;;;;;15.45;2.15;;;2.30;99.90;;;;;;5045225;28;20502;-68
2023/03/28 00:33:56;;;;;;;19.20;1.92;;;2.20;99.90;;;;;;5047059;28;20021;-69
2023/03/28 00:36:28;;;;;;;16.85;2.28;;;2.30;99.90;;;;;;5047170;28;20021;-68
2023/03/28 00:38:56;;;;;;;13.15;2.00;;;2.20;99.90;;;;;;5045570;28;20691;-69
2023/03/28 00:41:23;;;;;;;18.25;2.28;;;2.30;99.90;;;;;;5046826;28;20026;-69
2023/03/28 00:43:51;;;;;;;21.30;2.03;;;2.30;99.90;;;;;;5046985;28;20045;-69
2023/03/28 00:46:34;;;;;;;15.82;1.90;;;2.30;99.90;;;;;;5046569;28;20028;-68
2023/03/28 00:49:11;;;;;;;13.25;1.70;;;2.20;99.90;;;;;;5046785;28;20048;-69
2023/03/28 00:51:40;;;;;;;15.90;1.98;;;2.30;99.90;;;;;;5044480;28;20037;-68
2023/03/28 00:54:11;;;;;;;14.85;2.60;;;2.30;99.90;;;;;;5046830;28;20022;-70
2023/03/28 00:56:40;;;;;;;12.93;1.73;;;2.30;99.90;;;;;;5044360;28;20048;-69
2023/03/28 00:59:11;;;;;;;16.27;2.15;;;2.20;99.90;;;;;;5046552;28;20014;-68
2023/03/28 01:01:37;;;;;;;17.42;2.22;;;2.30;99.90;;;;;;5044295;28;20045;-69
2023/03/28 01:04:04;;;;;;;18.30;2.00;;;2.30;99.90;;;;;;5046519;28;20029;-68
2023/03/28 01:06:37;;;;;;;20.50;1.85;;;2.20;99.90;;;;;;5046328;28;20030;-68
2023/03/28 01:09:06;;;;;;;15.82;2.30;;;2.30;99.90;;;;;;5042769;28;20026;-68
2023/03/28 01:11:35;;;;;;;10.73;2.10;;;2.20;99.90;;;;;;5046525;28;20033;-69
2023/03/28 01:14:03;;;;;;;13.32;1.77;;;2.20;99.90;;;;;;5046316;28;20028;-68
2023/03/28 01:16:32;;;;;;;9.40;1.67;;;2.20;99.90;;;;;;5046330;28;20692;-70
2023/03/28 01:19:02;;;;;;;13.85;1.95;;;2.20;99.90;;;;;;5044112;28;20029;-70
2023/03/28 01:22:05;;;;;;;16.98;2.42;;;2.20;99.90;;;;;;5045901;28;20045;-70
2023/03/28 01:25:05;;;;;;;12.07;1.85;;;2.10;99.90;;;;;;5046045;28;20099;-71
2023/03/28 01:28:01;;;;;;;18.58;1.67;;;2.10;99.90;;;;;;5046087;28;20029;-71
2023/03/28 01:30:38;;;;;;;17.38;1.88;;;2.10;99.90;;;;;;5054421;28;20123;-71
2023/03/28 01:33:20;;;;;;;12.93;1.55;;;2.10;99.90;;;;;;5040748;28;20034;-71
2023/03/28 01:36:10;;;;;;;14.23;2.00;;;2.10;99.90;;;;;;5043574;28;20028;-71
2023/03/28 01:39:03;;;;;;;13.35;1.35;;;2.10;99.90;;;;;;5043534;28;20022;-71
2023/03/28 01:41:51;;;;;;;13.55;1.45;;;2.10;99.90;;;;;;5043901;28;20037;-72
2023/03/28 01:44:26;;;;;;;14.77;2.08;;;2.00;99.90;;;;;;5045803;28;20021;-70
2023/03/28 01:47:26;;;;;;;16.17;2.60;;;2.10;99.90;;;;;;5043882;28;20030;-71
2023/03/28 01:49:51;;;;;;;19.67;1.90;;;2.00;99.90;;;;;;5037934;28;20100;-70
2023/03/28 01:52:20;;;;;;;17.10;2.08;;;2.00;99.90;;;;;;5045697;28;20110;-72
2023/03/28 01:54:59;;;;;;;8.10;1.80;;;2.00;99.90;;;;;;5042743;28;20446;-72
2023/03/28 01:57:31;;;;;;;15.13;1.77;;;2.00;99.90;;;;;;5045515;28;20498;-71
2023/03/28 02:00:00;;;;;;;11.85;1.83;;;2.00;99.90;;;;;;5045324;28;20037;-71
2023/03/28 02:02:48;;;;;;;10.30;1.73;;;2.00;99.90;;;;;;5039642;28;20024;-69
2023/03/28 02:05:15;;;;;;;16.55;2.22;;;2.00;99.90;;;;;;5045279;28;20048;-71
2023/03/28 02:07:42;;;;;;;14.00;2.15;;;1.90;99.90;;;;;;5043702;28;20076;-71
2023/03/28 02:10:10;;;;;;;14.30;2.15;;;2.00;99.90;;;;;;5043989;28;20092;-73
2023/03/28 02:12:42;;;;;;;16.92;1.98;;;2.00;99.90;;;;;;5042927;28;20033;-71
2023/03/28 02:15:12;;;;;;;12.20;1.63;;;1.90;99.90;;;;;;5043004;28;20026;-72
2023/03/28 02:17:44;;;;;;;17.80;2.13;;;1.90;99.90;;;;;;5045428;28;20022;-72
2023/03/28 02:20:14;;;;;;;9.73;1.50;;;1.90;99.90;;;;;;5042690;28;20100;-71
2023/03/28 02:23:08;;;;;;;12.50;2.08;;;1.90;99.90;;;;;;5045275;28;20036;-71
2023/03/28 02:25:35;;;;;;;19.30;1.90;;;1.90;99.90;;;;;;5045178;28;20492;-71
2023/03/28 02:28:04;;;;;;;7.57;1.65;;;1.90;99.90;;;;;;5043867;28;20117;-72
2023/03/28 02:30:30;;;;;;;10.05;1.60;;;1.80;99.90;;;;;;5044897;28;20171;-70
2023/03/28 02:33:03;;;;;;;11.10;1.60;;;1.80;99.90;;;;;;5044944;28;20025;-73
2023/03/28 02:35:45;;;;;;;12.83;2.00;;;1.80;99.90;;;;;;5042734;28;20415;-69
2023/03/28 02:38:34;;;;;;;18.42;2.03;;;1.80;99.90;;;;;;5042962;28;20072;-72
2023/03/28 02:41:09;;;;;;;17.80;2.08;;;1.80;99.90;;;;;;5023230;28;20068;-72
2023/03/28 02:44:10;;;;;;;14.35;1.73;;;1.80;99.90;;;;;;5043641;28;20023;-71
2023/03/28 02:46:51;;;;;;;11.77;2.08;;;1.80;99.90;;;;;;5003001;28;20038;-71
2023/03/28 02:49:45;;;;;;;9.68;1.75;;;1.80;99.90;;;;;;5039958;28;20064;-72
2023/03/28 02:52:33;;;;;;;11.98;2.35;;;1.80;99.90;;;;;;5044872;28;20029;-71
2023/03/28 02:55:11;;;;;;;12.98;1.95;;;1.80;99.90;;;;;;5044591;28;20021;-70
2023/03/28 02:57:56;;;;;;;13.13;2.25;;;1.80;99.90;;;;;;5043326;28;20462;-71
2023/03/28 03:00:22;;;;;;;14.30;1.85;;;1.80;99.90;;;;;;5044298;28;20128;-72
2023/03/28 03:02:53;;;;;;;13.10;2.05;;;1.90;99.90;;;;;;5044350;28;20025;-70
2023/03/28 03:05:20;;;;;;;13.93;1.77;;;1.90;99.90;;;;;;5044379;28;20022;-70
2023/03/28 03:07:48;;;;;;;16.27;2.03;;;1.90;99.90;;;;;;5037405;28;20076;-71
2023/03/28 03:10:15;;;;;;;10.80;2.40;;;1.90;99.90;;;;;;5044139;28;20014;-71
2023/03/28 03:12:42;;;;;;;14.65;2.22;;;1.90;99.90;;;;;;5042719;28;20029;-70
2023/03/28 03:15:09;;;;;;;18.25;1.90;;;1.90;99.90;;;;;;5040503;28;20022;-73
2023/03/28 03:17:35;;;;;;;15.30;1.95;;;1.90;99.90;;;;;;5043468;28;20035;-73
2023/03/28 03:20:04;;;;;;;16.92;2.35;;;1.90;99.90;;;;;;5044279;28;20067;-69
2023/03/28 03:22:30;;;;;;;14.75;2.45;;;1.90;99.90;;;;;;5044196;28;20041;-70
2023/03/28 03:25:03;;;;;;;20.25;2.78;;;1.80;99.90;;;;;;5042437;28;20029;-70
2023/03/28 03:27:30;;;;;;;22.77;2.60;;;1.90;99.90;;;;;;5044201;28;20041;-71
2023/03/28 03:29:55;;;;;;;16.60;2.78;;;1.80;99.90;;;;;;5044035;28;20417;-71
2023/03/28 03:32:21;;;;;;;13.63;2.28;;;1.80;99.90;;;;;;5044928;28;20021;-70
2023/03/28 03:34:47;;;;;;;12.88;2.15;;;1.80;99.90;;;;;;5047329;28;20052;-70
2023/03/28 03:37:13;;;;;;;17.90;2.78;;;1.80;99.90;;;;;;5048612;28;20021;-71
2023/03/28 03:39:38;;;;;;;16.42;2.60;;;1.80;99.90;;;;;;5048532;28;20026;-72
2023/03/28 03:42:04;;;;;;;14.55;2.45;;;1.70;99.90;;;;;;5048904;28;20097;-70
2023/03/28 03:44:30;;;;;;;8.60;1.98;;;1.70;99.90;;;;;;5048709;28;20033;-71
2023/03/28 03:46:56;;;;;;;12.85;1.67;;;1.70;99.90;;;;;;5047208;28;20089;-72
2023/03/28 03:49:22;;;;;;;13.65;2.13;;;1.70;99.90;;;;;;5048268;28;20018;-71
2023/03/28 03:51:47;;;;;;;15.27;2.63;;;1.70;99.90;;;;;;5046799;28;20048;-72
2023/03/28 03:54:13;;;;;;;11.48;1.92;;;1.70;99.90;;;;;;5048336;28;20029;-70
2023/03/28 03:56:39;;;;;;;14.18;1.80;;;1.70;99.90;;;;;;5047038;28;20025;-72
2023/03/28 03:59:05;;;;;;;13.25;2.47;;;1.70;99.90;;;;;;5047089;28;20021;-69
2023/03/28 04:01:31;;;;;;;14.77;2.38;;;1.70;99.90;;;;;;5048281;28;20494;-69
2023/03/28 04:03:56;;;;;;;12.63;2.00;;;1.70;99.90;;;;;;5048279;28;20033;-68
2023/03/28 04:06:22;;;;;;;17.45;2.47;;;1.70;99.90;;;;;;5047922;28;20043;-69
2023/03/28 04:08:50;;;;;;;11.23;2.00;;;1.70;99.90;;;;;;5047750;28;20053;-71
2023/03/28 04:11:16;;;;;;;16.17;2.33;;;1.70;99.90;;;;;;5047814;28;20032;-70
2023/03/28 04:13:41;;;;;;;21.10;2.35;;;1.70;99.90;;;;;;5048092;28;20529;-68
2023/03/28 04:16:07;;;;;;;13.63;2.20;;;1.70;99.90;;;;;;5046885;28;20079;-73
2023/03/28 04:18:34;;;;;;;15.60;3.28;;;1.70;99.90;;;;;;5046620;28;20034;-70
2023/03/28 04:21:01;;;;;;;19.77;3.83;;;1.70;99.90;;;;;;5047872;28;20105;-69
2023/03/28 04:23:27;;;;;;;15.15;3.85;;;1.70;99.90;;;;;;5047722;28;20057;-68
2023/03/28 04:25:57;;;;;;;25.25;4.78;;;1.60;99.90;;;;;;5047654;28;20052;-68
2023/03/28 04:28:24;;;;;;;24.98;3.75;;;1.60;99.90;;;;;;5047864;28;20033;-68
2023/03/28 04:30:57;;;;;;;17.92;3.78;;;1.60;99.90;;;;;;5047625;28;20041;-70
2023/03/28 04:33:27;;;;;;;26.05;3.70;;;1.60;99.90;;;;;;5047817;28;20025;-70
2023/03/28 04:36:01;;;;;;;16.42;3.90;;;1.60;99.90;;;;;;5047590;28;20390;-70
2023/03/28 04:38:31;;;;;;;25.92;4.13;;;1.60;99.90;;;;;;5047559;28;20779;-69
2023/03/28 04:40:57;;;;;;;21.58;3.10;;;1.60;99.90;;;;;;5047484;28;20041;-71
2023/03/28 04:43:24;;;;;;;24.58;2.67;;;1.60;99.90;;;;;;5047139;28;20030;-70
2023/03/28 04:45:51;;;;;;;19.85;3.13;;;1.60;99.90;;;;;;5047275;28;20021;-71
2023/03/28 04:48:17;;;;;;;16.75;3.05;;;1.60;99.90;;;;;;5047429;28;20033;-69
2023/03/28 04:50:42;;;;;;;19.00;3.72;;;1.70;99.90;;;;;;5047370;28;20030;-69
2023/03/28 04:53:08;;;;;;;20.92;3.28;;;1.70;99.90;;;;;;5047289;28;20386;-68
2023/03/28 04:55:33;;;;;;;19.40;2.80;;;1.80;99.90;;;;;;5046058;28;20030;-70
2023/03/28 04:57:59;;;;;;;16.02;2.75;;;1.80;99.90;;;;;;5045934;28;20032;-71
2023/03/28 05:00:25;;;;;;;17.50;3.13;;;1.80;99.90;;;;;;5046777;28;20045;-70
2023/03/28 05:02:54;;;;;;;22.20;3.22;;;1.80;99.90;;;;;;5047186;28;20107;-69
2023/03/28 05:05:20;;;;;;;14.85;2.90;;;1.80;99.90;;;;;;5047131;28;20022;-69
2023/03/28 05:07:46;;;;;;;26.90;3.78;;;1.70;99.90;;;;;;5046635;28;20055;-70
2023/03/28 05:10:11;;;;;;;25.98;3.17;;;1.70;99.90;;;;;;5046840;28;20037;-69
2023/03/28 05:12:37;;;;;;;25.33;3.97;;;1.70;99.90;;;;;;5045553;28;20025;-70
2023/03/28 05:15:12;;;;;;;15.27;3.45;;;1.70;99.90;;;;;;5047087;28;20029;-68
2023/03/28 05:17:39;;;;;;;21.20;3.00;;;1.70;99.90;;;;;;5047060;28;20021;-69
2023/03/28 05:20:08;;;;;;;23.08;3.08;;;1.70;99.90;;;;;;5046970;28;20064;-70
2023/03/28 05:22:35;;;;;;;24.83;4.00;;;1.80;99.90;;;;;;5046855;28;20037;-69
2023/03/28 05:25:00;;;;;;;20.75;4.10;;;1.80;99.90;;;;;;5046786;28;20021;-69
2023/03/28 05:27:26;;;;;;;29.20;3.53;;;1.80;99.90;;;;;;5046562;28;20111;-68
2023/03/28 05:29:52;;;;;;;14.73;2.90;;;1.80;99.90;;;;;;5045209;28;20246;-70
2023/03/28 05:32:17;;;;;;;17.17;3.50;;;1.90;99.90;;;;;;5046489;28;20037;-67
2023/03/28 05:34:43;;;;;;;22.25;3.28;;;1.90;99.90;;;;;;5046497;28;20029;-68
2023/03/28 05:37:09;;;;;;;21.45;3.03;;;1.90;99.90;;;;;;5046593;28;20075;-69
2023/03/28 05:39:34;;;;;;;18.77;2.83;;;1.90;99.90;;;;;;5046358;28;20133;-69
2023/03/28 05:42:00;;;;;;;11.93;3.15;;;2.00;99.90;;;;;;5046489;28;20114;-70
2023/03/28 05:44:25;;;;;;;25.50;2.70;;;2.00;99.90;;;;;;5046268;28;20025;-67
2023/03/28 05:46:51;;;;;;;25.38;3.13;;;2.00;99.90;;;;;;5046270;28;20394;-70
2023/03/28 05:49:16;;;;;;;22.95;3.72;;;2.10;99.90;;;;;;5049149;28;20022;-67
2023/03/28 05:51:42;;;;;;;11.23;2.58;;;2.10;99.90;;;;;;5060806;28;20563;-69
2023/03/28 05:54:08;;;;;;;21.02;2.63;;;2.20;99.90;;;;;;5046217;28;20030;-68
2023/03/28 05:56:34;;;;;;;25.27;3.38;;;2.20;99.90;;;;;;5045355;28;20034;-69
2023/03/28 05:59:01;;;;;;;20.15;2.60;;;2.40;99.90;;;;;;5046215;28;20036;-70
2023/03/28 06:01:27;;;;;;;23.13;2.78;;;2.30;99.90;;;;;;5045927;28;20041;-69
2023/03/28 06:03:54;;;;;;;18.27;2.95;;;2.40;99.90;;;;;;5045883;28;20029;-69
2023/03/28 06:06:20;;;;;;;17.80;3.25;;;2.40;99.90;;;;;;5044445;28;20029;-68
2023/03/28 06:08:46;;;;;;;16.38;3.47;;;2.50;99.90;;;;;;5050773;28;20060;-70
2023/03/28 06:11:12;;;;;;;20.75;3.63;;;2.50;99.90;;;;;;5035072;28;20049;-70
2023/03/28 06:13:37;;;;;;;17.85;3.97;;;2.50;99.90;;;;;;5047420;28;21616;-68
2023/03/28 06:16:03;;;;;;;13.02;3.28;;;2.60;99.90;;;;;;5044257;28;20064;-67
2023/03/28 06:18:29;;;;;;;16.27;3.30;;;2.60;99.90;;;;;;5043390;28;20055;-68
2023/03/28 06:20:55;;;;;;;28.60;4.60;;;2.70;99.90;;;;;;5043254;28;20048;-70
2023/03/28 06:23:21;;;;;;;25.70;3.60;;;2.70;99.90;;;;;;5044629;28;20342;-69
2023/03/28 06:25:47;;;;;;;20.70;3.13;;;2.70;99.90;;;;;;5043623;28;20029;-68
2023/03/28 06:28:12;;;;;;;26.40;3.47;;;2.70;99.90;;;;;;5045080;28;20418;-70
2023/03/28 06:30:41;;;;;;;21.88;3.20;;;2.70;99.90;;;;;;5045142;28;20061;-69
2023/03/28 06:33:07;;;;;;;23.80;3.55;;;2.80;99.90;;;;;;5045342;28;20045;-68
2023/03/28 06:35:33;;;;;;;17.02;3.40;;;2.80;99.90;;;;;;5045170;28;20033;-69
2023/03/28 06:37:59;;;;;;;12.75;3.05;;;2.90;99.90;;;;;;5045121;28;20033;-69
2023/03/28 06:40:25;;;;;;;14.05;3.08;;;2.80;99.90;;;;;;5044905;28;20041;-70
2023/03/28 06:42:51;;;;;;;17.35;3.22;;;2.80;99.90;;;;;;5045103;28;20029;-69
2023/03/28 06:45:17;;;;;;;13.07;3.50;;;2.90;99.90;;;;;;5044124;28;20022;-69
2023/03/28 06:47:44;;;;;;;20.45;3.05;;;2.90;99.90;;;;;;5045120;28;20029;-69
2023/03/28 06:50:10;;;;;;;22.25;3.60;;;2.90;99.90;;;;;;5043602;28;20112;-69
2023/03/28 06:52:36;;;;;;;19.25;3.47;;;2.90;99.90;;;;;;5044056;28;20064;-70
2023/03/28 06:55:02;;;;;;;20.05;3.55;;;2.90;99.90;;;;;;5044889;28;20382;-69
2023/03/28 06:57:28;;;;;;;14.93;2.85;;;2.90;99.90;;;;;;5045235;28;20024;-68
2023/03/28 06:59:54;;;;;;;15.65;3.20;;;2.80;99.90;;;;;;5044488;28;20033;-69
2023/03/28 07:02:19;;;;;;;17.58;3.30;;;2.80;99.90;;;;;;5038545;28;20033;-68
2023/03/28 07:04:45;;;;;;;13.63;3.38;;;2.80;99.90;;;;;;5038032;28;20386;-70
2023/03/28 07:07:11;;;;;;;15.45;3.20;;;2.80;99.90;;;;;;5031956;28;20048;-69
2023/03/28 07:09:36;;;;;;;18.10;3.05;;;2.80;99.90;;;;;;5036315;28;20068;-70
2023/03/28 07:12:03;;;;;;;13.35;3.13;;;2.90;99.90;;;;;;5026301;28;20034;-68
2023/03/28 07:14:29;;;;;;;20.80;3.33;;;3.00;99.90;;;;;;5033843;28;20501;-67
2023/03/28 07:16:54;;;;;;;20.63;3.08;;;3.00;99.90;;;;;;5038886;28;20025;-68
2023/03/28 07:19:21;;;;;;;12.98;2.90;;;3.10;99.90;;;;;;5031362;28;20029;-70
2023/03/28 07:21:47;;;;;;;12.88;3.17;;;3.10;99.90;;;;;;5030384;28;20037;-69
2023/03/28 07:24:13;;;;;;;16.23;3.90;;;3.20;99.90;;;;;;5037465;28;20033;-69
2023/03/28 07:26:39;;;;;;;16.33;4.35;;;3.20;99.90;;;;;;5044418;28;20470;-69
2023/03/28 07:29:04;;;;;;;15.45;4.72;;;3.20;99.90;;;;;;5025483;28;20026;-68
2023/03/28 07:31:30;;;;;;;18.83;5.22;;;3.30;99.90;;;;;;5044442;28;20063;-70
2023/03/28 07:33:56;;;;;;;22.50;3.95;;;3.40;99.90;;;;;;5044438;28;20057;-69
2023/03/28 07:36:23;;;;;;;22.77;3.83;;;3.50;99.90;;;;;;5040777;28;20041;-68
2023/03/28 07:38:49;;;;;;;16.45;3.78;;;3.60;99.90;;;;;;5032280;28;20427;-69
2023/03/28 07:41:14;;;;;;;25.48;4.18;;;3.60;99.90;;;;;;5044075;28;20042;-69
2023/03/28 07:43:40;;;;;;;16.92;3.45;;;3.70;99.90;;;;;;5044519;28;20046;-70
2023/03/28 07:46:08;;;;;;;18.00;3.92;;;3.80;99.90;;;;;;5044529;28;20052;-68
2023/03/28 07:48:35;;;;;;;14.90;3.20;;;3.80;99.90;;;;;;5036541;28;20439;-67
2023/03/28 07:51:03;;;;;;;25.17;3.83;;;3.90;99.90;;;;;;5026934;28;20022;-70
2023/03/28 07:53:29;;;;;;;24.45;4.20;;;4.00;99.90;;;;;;5043972;28;20022;-70
2023/03/28 07:55:54;;;;;;;23.20;3.60;;;4.10;99.90;;;;;;5038961;28;20065;-69
2023/03/28 07:58:20;;;;;;;22.27;3.30;;;4.20;99.90;;;;;;5028643;28;20087;-68
2023/03/28 08:00:46;;;;;;;24.42;3.42;;;4.40;99.90;;;;;;5031655;28;20037;-68
2023/03/28 08:03:12;;;;;;;21.63;4.18;;;4.50;99.90;;;;;;5036669;28;20033;-69
2023/03/28 08:05:38;;;;;;;15.05;3.38;;;4.80;99.90;;;;;;5039486;28;20029;-69
2023/03/28 08:08:05;;;;;;;17.85;2.95;;;4.90;99.90;;;;;;5040149;28;20045;-70
2023/03/28 08:10:31;;;;;;;16.88;3.25;;;5.20;99.90;;;;;;5037333;28;20040;-70
2023/03/28 08:12:57;;;;;;;20.35;3.50;;;5.50;99.90;;;;;;5038131;28;20109;-69
2023/03/28 08:15:22;;;;;;;20.98;2.58;;;5.70;99.90;;;;;;5029025;28;20080;-69
2023/03/28 08:17:48;;;;;;;17.38;3.35;;;5.70;99.90;;;;;;5034526;28;20037;-69
2023/03/28 08:20:13;;;;;;;19.45;3.00;;;5.70;99.90;;;;;;5041948;28;20033;-69
2023/03/28 08:22:40;;;;;;;13.40;2.75;;;5.80;99.90;;;;;;5040747;28;20057;-71
2023/03/28 08:25:06;;;;;;;14.48;2.17;;;5.90;99.90;;;;;;5046318;28;20060;-69
2023/03/28 08:27:32;;;;;;;13.77;2.30;;;5.90;99.90;;;;;;5047837;28;20022;-70
2023/03/28 08:29:58;;;;;;;18.75;2.58;;;6.00;99.90;;;;;;5047510;28;20053;-68
2023/03/28 08:32:24;;;;;;;16.42;2.90;;;6.10;99.90;;;;;;5032866;28;20052;-69
2023/03/28 08:34:49;;;;;;;13.23;2.78;;;6.10;99.90;;;;;;5027776;28;20022;-70
2023/03/28 08:37:15;;;;;;;27.52;3.45;;;6.10;99.90;;;;;;5036009;28;20033;-70
2023/03/28 08:39:44;;;;;;;13.68;2.70;;;6.10;99.90;;;;;;5039769;28;20025;-69
2023/03/28 08:42:25;;;;;;;18.08;3.33;;;6.10;99.90;;;;;;5044683;28;20534;-70
2023/03/28 08:45:28;;;;;;;16.67;2.72;;;6.20;99.90;;;;;;5045352;28;20036;-71
2023/03/28 08:48:12;;;;;;;14.25;2.80;;;6.10;99.90;;;;;;5044152;28;20029;-72
2023/03/28 08:50:41;;;;;;;;;;;6.10;99.90;;;;;;5041184;28;20463;-71
2023/03/28 08:53:18;;;;;;;19.13;3.40;;;6.10;99.90;;;;;;5044860;28;19913;-69
2023/03/28 08:55:45;;;;;;;20.98;3.08;;;6.20;99.90;;;;;;5042747;28;20090;-70
2023/03/28 08:58:20;;;;;;;24.85;3.47;;;6.40;99.90;;;;;;5047850;28;20022;-71
2023/03/28 09:00:47;;;;;;;16.27;2.85;;;6.70;99.90;;;;;;5045381;28;20033;-71
2023/03/28 09:03:16;;;;;;;18.55;3.38;;;7.10;99.90;;;;;;5041006;28;20025;-70
2023/03/28 09:06:03;;;;;;;23.52;4.05;;;7.30;99.90;;;;;;5043320;28;20060;-70
2023/03/28 09:08:41;;;;;;;19.35;3.45;;;7.30;99.90;;;;;;5043695;28;20056;-69
2023/03/28 09:11:25;;;;;;;13.38;2.60;;;7.30;99.90;;;;;;5037783;28;20109;-70
2023/03/28 09:14:18;;;;;;;19.42;2.65;;;7.10;99.90;;;;;;5042169;28;20025;-70
2023/03/28 09:17:08;;;;;;;17.88;3.03;;;6.90;99.90;;;;;;5040567;28;20018;-71
2023/03/28 09:19:33;;;;;;;18.08;5.00;;;6.70;99.90;;;;;;5040021;28;20029;-68
2023/03/28 09:22:38;;;;;;;18.10;3.92;;;6.70;99.90;;;;;;5043043;28;20040;-70
2023/03/28 09:25:16;;;;;;;13.60;3.45;;;6.70;99.90;;;;;;5038842;28;20029;-68
2023/03/28 09:27:57;;;;;;;19.35;3.05;;;6.90;99.90;;;;;;5034615;28;20109;-71
2023/03/28 09:30:28;;;;;;;18.08;3.72;;;7.00;99.90;;;;;;5044790;28;20033;-68
2023/03/28 09:32:57;;;;;;;14.13;2.95;;;7.00;99.90;;;;;;5040758;28;20095;-69
2023/03/28 09:35:26;;;;;;;17.80;2.83;;;6.90;99.90;;;;;;5036523;28;20034;-67
2023/03/28 09:37:55;;;;;;;16.30;2.60;;;6.80;99.90;;;;;;5031448;28;20033;-71
2023/03/28 09:40:26;;;;;;;6.38;1.92;;;6.70;99.90;;;;;;5035950;28;20049;-71
2023/03/28 09:43:14;;;;;;;16.00;2.53;;;6.70;99.90;;;;;;5031585;28;20475;-70
2023/03/28 09:46:08;;;;;;;20.98;2.90;;;6.60;99.90;;;;;;5044312;28;20096;-70
2023/03/28 09:48:36;;;;;;;18.33;2.55;;;6.60;99.90;;;;;;5028156;28;20145;-70
2023/03/28 09:51:04;;;;;;;17.50;2.38;;;6.70;99.90;;;;;;5038011;28;20041;-69
2023/03/28 09:53:35;;;;;;;11.68;2.22;;;6.70;99.90;;;;;;5028078;28;20037;-71
2023/03/28 09:56:40;;;;;;;15.02;2.38;;;6.70;99.90;;;;;;5030222;28;20080;-69
2023/03/28 09:59:20;;;;;;;16.20;2.63;;;6.80;99.90;;;;;;4995331;28;20043;-71
2023/03/28 10:01:49;;;;;;;18.40;2.10;;;6.70;99.90;;;;;;5026862;28;20053;-70
2023/03/28 10:04:30;;;;;;;8.00;2.03;;;6.70;99.90;;;;;;5043220;28;20485;-69
2023/03/28 10:07:21;;;;;;;18.08;1.90;;;6.70;99.90;;;;;;5026614;28;20437;-70
2023/03/28 10:09:56;;;;;;;15.10;2.17;;;7.20;99.90;;;;;;5039309;28;20076;-70
2023/03/28 10:12:32;;;;;;;11.65;2.00;;;7.60;99.90;;;;;;5044772;28;20025;-73
2023/03/28 10:14:59;;;;;;;19.88;2.17;;;8.00;99.90;;;;;;5035454;28;20061;-71
2023/03/28 10:17:35;;;;;;;11.60;2.65;;;8.40;99.90;;;;;;5041069;28;20083;-71
2023/03/28 10:20:22;;;;;;;11.50;2.15;;;8.70;99.90;;;;;;5038936;28;20064;-68
2023/03/28 10:22:50;;;;;;;14.57;2.05;;;8.70;99.90;;;;;;5045318;28;20622;-70
2023/03/28 10:25:32;;;;;;;15.90;2.25;;;8.70;99.90;;;;;;5036027;28;20028;-68
2023/03/28 10:27:59;;;;;;;10.80;2.08;;;8.80;99.90;;;;;;5037249;28;20037;-71
2023/03/28 10:30:28;;;;;;;11.45;2.13;;;9.20;99.90;;;;;;5037718;28;20056;-68
2023/03/28 10:33:20;;;;;;;13.88;2.08;;;9.10;99.90;;;;;;5042215;28;20061;-70
2023/03/28 10:36:11;;;;;;;12.80;2.00;;;8.70;99.90;;;;;;5025093;28;20045;-70
2023/03/28 10:38:46;;;;;;;15.38;1.98;;;8.50;99.90;;;;;;5036540;28;20021;-72
2023/03/28 10:41:26;;;;;;;11.15;1.75;;;8.50;99.90;;;;;;5040135;28;20045;-72
2023/03/28 10:43:53;;;;;;;13.43;2.03;;;8.30;99.90;;;;;;5031176;28;20089;-69
2023/03/28 10:46:20;;;;;;;13.18;1.58;;;8.30;99.90;;;;;;5025239;28;20025;-73
2023/03/28 10:49:11;;;;;;;12.07;1.70;;;8.40;99.90;;;;;;5027105;28;20475;-69
2023/03/28 10:51:38;;;;;;;11.07;1.67;;;8.30;99.90;;;;;;5043928;28;20545;-70
2023/03/28 10:54:15;;;;;;;10.10;2.22;;;8.40;99.90;;;;;;5042214;28;20067;-70
2023/03/28 10:56:49;;;;;;;11.13;2.10;;;8.40;99.90;;;;;;5025173;28;20060;-74
2023/03/28 10:59:40;;;;;;;12.57;1.80;;;8.30;99.90;;;;;;5052488;28;20040;-75
2023/03/28 11:02:25;;;;;;;7.38;1.63;;;8.20;99.90;;;;;;5032453;28;20045;-69
2023/03/28 11:05:03;;;;;;;9.25;2.00;;;8.00;99.90;;;;;;5038680;28;20022;-70
2023/03/28 11:07:58;;;;;;;9.48;2.15;;;7.90;99.90;;;;;;5040405;28;20053;-70
2023/03/28 11:10:32;;;;;;;8.75;1.70;;;7.90;99.90;;;;;;5043082;28;20083;-70
2023/03/28 11:13:06;;;;;;;22.25;2.28;;;7.90;99.90;;;;;;5043143;28;20466;-69
2023/03/28 11:15:53;;;;;;;11.38;2.05;;;8.00;99.90;;;;;;5040856;28;20032;-70
2023/03/28 11:18:37;;;;;;;13.60;1.83;;;8.10;99.90;;;;;;5036102;28;20026;-69
2023/03/28 11:21:14;;;;;;;;;;;8.40;99.90;;;;;;5043634;28;20371;-71
2023/03/28 11:24:04;;;;;;;17.33;2.00;;;8.50;99.90;;;;;;5038869;28;19905;-68
2023/03/28 11:26:42;;;;;;;12.50;1.90;;;8.70;99.90;;;;;;5036787;28;20371;-70
2023/03/28 11:29:42;;;;;;;13.20;2.00;;;8.70;99.90;;;;;;5037945;28;20026;-71
2023/03/28 11:32:20;;;;;;;8.75;2.17;;;8.70;99.90;;;;;;5041831;28;20121;-72
2023/03/28 11:35:33;;;;;;;11.23;3.42;;;8.50;99.90;;;;;;5040897;28;20033;-70
2023/03/28 11:38:14;;;;;;;8.10;2.45;;;8.50;99.90;;;;;;5042582;28;20048;-71
2023/03/28 11:40:52;;;;;;;5.75;2.13;;;8.60;99.90;;;;;;5041089;28;20061;-71
2023/03/28 11:43:33;;;;;;;7.85;1.70;;;8.80;99.90;;;;;;5038903;28;20021;-73
2023/03/28 11:46:07;;;;;;;10.07;2.65;;;8.90;99.90;;;;;;5041319;28;20029;-70
2023/03/28 11:48:52;;;;;;;;;;;9.10;99.90;;;;;;5043633;28;20033;-68
2023/03/28 11:51:35;;;;;;;6.97;2.00;;;9.30;99.90;;;;;;5040676;28;19913;-69
2023/03/28 11:54:16;;;;;;;10.60;2.83;;;9.40;99.90;;;;;;5036728;28;20077;-69
2023/03/28 11:56:47;;;;;;;10.93;2.53;;;9.80;99.90;;;;;;5035275;28;20030;-68
2023/03/28 11:59:51;;;;;;;10.18;2.83;;;10.10;99.90;;;;;;5045730;28;20460;-70
2023/03/28 12:02:29;;;;;;;6.45;1.85;;;10.60;99.90;;;;;;5040992;28;20058;-71
2023/03/28 12:05:07;;;;;;;9.63;2.35;;;11.10;99.90;;;;;;5046680;28;20057;-72
2023/03/28 12:07:44;;;;;;;8.55;2.00;;;11.20;99.90;;;;;;5044185;28;20049;-71
2023/03/28 12:10:20;;;;;;;10.10;1.90;;;11.10;99.90;;;;;;5045826;28;20030;-72
2023/03/28 12:13:10;;;;;;;10.07;1.98;;;11.00;99.90;;;;;;5043991;28;20026;-70
2023/03/28 12:16:06;;;;;;;9.80;2.05;;;10.80;99.90;;;;;;5046629;28;20147;-71
2023/03/28 12:18:48;;;;;;;11.73;2.20;;;10.60;99.90;;;;;;5044046;28;20049;-70
2023/03/28 12:21:36;;;;;;;11.13;2.58;;;10.50;99.90;;;;;;5031306;28;20057;-71
2023/03/28 12:24:03;;;;;;;9.50;2.17;;;10.60;99.90;;;;;;5046105;28;20060;-69
2023/03/28 12:26:55;;;;;;;9.18;2.28;;;10.90;99.90;;;;;;5042023;28;20025;-70
2023/03/28 12:29:49;;;;;;;12.60;3.17;;;11.10;99.90;;;;;;5040813;28;20021;-70
2023/03/28 12:32:33;;;;;;;11.23;2.80;;;11.20;99.90;;;;;;5041834;28;20037;-69
2023/03/28 12:35:23;;;;;;;11.13;2.47;;;11.20;99.90;;;;;;5047098;28;20026;-68
2023/03/28 12:38:06;;;;;;;4.88;1.60;;;11.10;99.90;;;;;;5046247;28;20034;-70
2023/03/28 12:40:45;;;;;;;8.43;2.08;;;11.00;99.90;;;;;;5046826;28;20041;-70
2023/03/28 12:43:14;;;;;;;7.00;2.10;;;10.90;99.90;;;;;;5040827;28;20033;-72
2023/03/28 12:45:46;;;;;;;12.70;2.38;;;10.90;99.90;;;;;;5022361;28;20034;-72
2023/03/28 12:48:32;;;;;;;9.00;2.40;;;10.80;99.90;;;;;;5027312;28;20080;-74
2023/03/28 12:51:04;;;;;;;11.63;2.22;;;10.50;99.90;;;;;;5026100;28;20030;-70
2023/03/28 12:53:32;;;;;;;18.17;5.82;;;10.20;99.90;;;;;;5022180;28;20033;-69
2023/03/28 12:55:58;;;;;;;10.60;3.05;;;10.10;99.90;;;;;;5024632;28;20475;-69
2023/03/28 12:58:34;;;;;;;11.02;2.50;;;10.00;99.90;;;;;;5024338;28;20055;-68
2023/03/28 13:01:11;;;;;;;11.63;2.10;;;10.00;99.90;;;;;;5026698;28;20037;-69
2023/03/28 13:03:50;;;;;;;11.25;2.50;;;10.20;99.90;;;;;;5025322;28;20034;-72
2023/03/28 13:06:18;;;;;;;11.93;2.17;;;10.50;99.90;;;;;;5026515;28;20014;-69
2023/03/28 13:09:19;;;;;;;9.73;2.33;;;10.50;99.90;;;;;;5026567;28;20564;-69
2023/03/28 13:12:18;;;;;;;11.93;2.10;;;10.40;99.90;;;;;;5025741;28;20026;-71
2023/03/28 13:15:08;;;;;;;14.10;2.45;;;10.40;99.90;;;;;;5027018;28;20030;-72
2023/03/28 13:17:36;;;;;;;10.23;2.22;;;10.40;99.90;;;;;;5027024;28;20026;-70